Time;durP1;ratioP1;P1;durP2;ratioP2;P2;SDS_P1;SDS_P2;PMS_P1;PMS_P2;Temp;Humidity;BMP_temperature;BMP_pressure;BME280_temperature;BME280_humidity;BME280_pressure;Samples;Min_cycle;Max_cycle;Signal;HPM_P1;HPM_P2
2023/03/28 00:01:02;;;;;;;10.57;2.63;;;;;;;8.31;46.18;102186.84;5064906;28;20045;-66
2023/03/28 00:03:34;;;;;;;9.52;2.67;;;;;;;8.12;45.96;102185.53;5064280;28;20052;-65
2023/03/28 00:06:04;;;;;;;11.43;2.50;;;;;;;8.20;45.80;102190.53;5063530;28;20044;-66
2023/03/28 00:08:32;;;;;;;8.55;2.70;;;;;;;8.07;45.74;102180.00;5072073;28;20052;-65
2023/03/28 00:11:04;;;;;;;10.35;3.00;;;;;;;8.19;45.57;102186.16;5062749;28;20044;-65
2023/03/28 00:13:32;;;;;;;10.00;2.65;;;;;;;7.90;46.32;102193.00;5068736;28;20419;-65
2023/03/28 00:16:05;;;;;;;8.75;2.53;;;;;;;7.83;46.66;102200.63;5065951;28;20052;-65
2023/03/28 00:18:36;;;;;;;10.65;2.90;;;;;;;7.71;47.41;102202.69;5067592;28;20492;-65
2023/03/28 00:21:06;;;;;;;9.18;3.10;;;;;;;7.83;47.31;102200.63;5060784;28;20051;-65
2023/03/28 00:23:34;;;;;;;9.23;3.22;;;;;;;8.07;47.48;102201.13;5074392;28;20492;-66
2023/03/28 00:26:06;;;;;;;8.18;2.92;;;;;;;7.94;47.45;102194.97;5072794;28;20586;-65
2023/03/28 00:28:34;;;;;;;7.55;3.13;;;;;;;7.75;47.72;102192.84;5059260;28;20053;-66
2023/03/28 00:31:03;;;;;;;11.65;3.15;;;;;;;7.71;48.38;102195.28;5059463;28;20053;-65
2023/03/28 00:33:31;;;;;;;8.82;2.80;;;;;;;7.58;48.32;102192.13;5055899;28;20045;-65
2023/03/28 00:35:59;;;;;;;11.93;3.33;;;;;;;7.76;48.71;102197.25;5063475;28;20063;-65
2023/03/28 00:38:27;;;;;;;7.22;2.92;;;;;;;7.86;47.72;102194.63;5073934;28;20044;-66
2023/03/28 00:40:57;;;;;;;10.63;3.47;;;;;;;7.84;48.10;102191.31;5071635;28;20059;-65
2023/03/28 00:43:45;;;;;;;10.55;3.30;;;;;;;7.84;47.93;102183.91;5073853;28;20044;-65
2023/03/28 00:46:19;;;;;;;10.13;3.08;;;;;;;7.60;47.92;102187.22;5050728;28;20074;-65
2023/03/28 00:48:50;;;;;;;8.93;2.90;;;;;;;7.64;48.16;102197.41;5053283;28;20416;-65
2023/03/28 00:51:20;;;;;;;9.45;3.15;;;;;;;7.85;47.82;102188.31;5059939;28;20052;-65
2023/03/28 00:53:48;;;;;;;;;;;;;;;7.80;47.70;102196.50;5067852;28;20044;-65
2023/03/28 00:56:18;;;;;;;10.00;3.33;;;;;;;7.66;48.31;102189.75;5065580;28;20351;-65
2023/03/28 00:58:46;;;;;;;7.22;2.70;;;;;;;7.83;47.55;102185.00;5068123;28;20063;-65
2023/03/28 01:01:18;;;;;;;14.35;3.08;;;;;;;8.06;47.43;102181.09;5046834;28;20056;-65
2023/03/28 01:04:19;;;;;;;9.15;3.40;;;;;;;7.88;47.70;102189.69;5047296;28;20045;-65
2023/03/28 01:06:55;;;;;;;11.00;3.05;;;;;;;7.93;47.78;102190.56;5052590;28;20442;-64
2023/03/28 01:09:24;;;;;;;9.02;3.35;;;;;;;7.91;47.68;102200.97;5056444;28;20064;-64
2023/03/28 01:11:57;;;;;;;9.48;3.45;;;;;;;7.95;47.64;102193.03;5061219;28;20052;-64
2023/03/28 01:14:29;;;;;;;7.65;2.90;;;;;;;7.77;48.14;102183.31;5075050;28;20048;-64
2023/03/28 01:17:04;;;;;;;10.02;2.90;;;;;;;7.90;48.10;102187.50;5024108;28;20415;-67
2023/03/28 01:19:44;;;;;;;12.05;2.95;;;;;;;8.04;47.58;102180.50;5072938;28;20049;-65
2023/03/28 01:22:42;;;;;;;8.23;2.97;;;;;;;7.96;47.60;102176.34;5063666;28;20500;-65
2023/03/28 01:25:51;;;;;;;7.75;3.00;;;;;;;7.88;47.74;102181.44;5055374;28;20041;-65
2023/03/28 01:28:55;;;;;;;9.63;2.78;;;;;;;7.89;47.74;102183.13;5073222;28;20056;-65
2023/03/28 01:31:45;;;;;;;6.80;2.85;;;;;;;7.91;47.88;102183.69;5067458;28;20040;-64
2023/03/28 01:35:14;;;;;;;12.90;2.65;;;;;;;7.99;47.37;102169.50;5061478;28;20048;-64
2023/03/28 01:38:07;;;;;;;12.07;3.08;;;;;;;7.78;48.09;102173.97;5068405;28;20053;-64
2023/03/28 01:41:05;;;;;;;7.03;2.75;;;;;;;7.96;47.08;102161.78;5072215;28;20052;-66
2023/03/28 01:43:48;;;;;;;9.95;3.33;;;;;;;7.74;48.10;102161.84;5052166;28;20045;-65
2023/03/28 01:46:36;;;;;;;;;;;;;;;7.62;48.18;102154.88;5063894;28;20494;-65
2023/03/28 01:50:02;;;;;;;8.32;2.70;;;;;;;7.78;48.27;102148.44;5053088;28;19920;-65
2023/03/28 01:52:31;;;;;;;9.30;2.75;;;;;;;7.72;48.20;102144.03;5061946;28;20393;-64
2023/03/28 01:55:08;;;;;;;9.35;2.67;;;;;;;7.78;47.96;102130.09;5058514;28;20412;-65
2023/03/28 01:58:20;;;;;;;8.60;2.85;;;;;;;7.52;48.56;102130.09;5058638;28;20567;-65
2023/03/28 02:01:06;;;;;;;9.57;2.63;;;;;;;7.77;47.69;102112.00;5001662;28;20050;-65
2023/03/28 02:03:40;;;;;;;18.33;3.45;;;;;;;7.75;47.64;102107.84;5040998;28;20049;-64
2023/03/28 02:06:16;;;;;;;9.20;2.70;;;;;;;7.82;47.63;102105.72;5067012;28;20037;-65
2023/03/28 02:08:43;;;;;;;7.20;2.95;;;;;;;7.56;48.57;102112.03;5057812;28;20053;-64
2023/03/28 02:11:18;;;;;;;8.73;2.75;;;;;;;7.61;48.63;102101.13;5069032;28;20059;-66
2023/03/28 02:14:11;;;;;;;10.73;3.33;;;;;;;7.58;48.71;102104.41;5062468;28;20056;-65
2023/03/28 02:17:03;;;;;;;7.22;3.20;;;;;;;7.46;48.62;102110.03;5060342;28;20053;-65
2023/03/28 02:20:07;;;;;;;9.73;2.97;;;;;;;7.43;49.13;102112.44;5057287;28;20057;-65
2023/03/28 02:23:14;;;;;;;10.02;2.90;;;;;;;7.40;49.46;102121.19;5041482;28;20063;-65
2023/03/28 02:26:00;;;;;;;9.15;2.80;;;;;;;7.32;49.57;102124.41;5061891;28;20040;-65
2023/03/28 02:28:47;;;;;;;10.13;2.90;;;;;;;7.54;49.10;102111.47;5055610;28;20137;-64
2023/03/28 02:31:28;;;;;;;10.63;3.40;;;;;;;7.46;49.09;102112.75;5065391;28;20052;-65
2023/03/28 02:33:57;;;;;;;6.88;3.10;;;;;;;7.52;49.18;102108.16;5075918;28;20052;-65
2023/03/28 02:36:31;;;;;;;7.90;2.97;;;;;;;7.33;49.21;102109.63;5073857;28;20075;-65
2023/03/28 02:39:13;;;;;;;9.65;2.70;;;;;;;7.42;48.99;102097.94;5076673;28;20055;-64
2023/03/28 02:41:55;;;;;;;8.88;2.95;;;;;;;7.57;48.74;102087.09;5069767;28;20053;-65
2023/03/28 02:44:48;;;;;;;7.95;3.17;;;;;;;7.80;48.26;102072.22;5058524;28;20040;-67
2023/03/28 02:47:38;;;;;;;7.93;2.90;;;;;;;7.34;49.26;102086.63;5056826;28;20045;-65
2023/03/28 02:50:17;;;;;;;10.70;2.92;;;;;;;7.43;49.57;102080.41;5059468;28;20059;-66
2023/03/28 02:52:57;;;;;;;10.90;2.97;;;;;;;7.46;49.08;102090.84;5073003;28;20052;-65
2023/03/28 02:55:46;;;;;;;9.05;2.55;;;;;;;7.12;49.82;102083.91;5069508;28;20061;-65
2023/03/28 02:58:45;;;;;;;8.98;2.72;;;;;;;7.15;49.81;102082.59;5057298;28;20045;-65
2023/03/28 03:01:13;;;;;;;7.68;2.67;;;;;;;7.19;49.98;102076.31;5048521;28;20048;-65
2023/03/28 03:03:43;;;;;;;8.38;2.25;;;;;;;7.23;49.57;102073.88;5075249;28;20052;-65
2023/03/28 03:06:11;;;;;;;10.55;2.53;;;;;;;7.22;49.66;102075.78;5061080;28;20036;-65
2023/03/28 03:08:38;;;;;;;10.98;2.88;;;;;;;7.27;49.36;102067.63;5068290;28;20187;-65
2023/03/28 03:11:06;;;;;;;9.02;2.90;;;;;;;7.39;49.44;102062.81;5070067;28;20052;-65
2023/03/28 03:13:33;;;;;;;7.30;2.83;;;;;;;7.36;49.48;102055.09;5073983;28;20044;-65
2023/03/28 03:16:02;;;;;;;6.38;2.70;;;;;;;7.23;49.71;102062.94;5060032;28;20048;-65
2023/03/28 03:18:31;;;;;;;12.02;2.75;;;;;;;7.27;49.97;102053.13;5068664;28;20068;-65
2023/03/28 03:21:00;;;;;;;10.43;2.67;;;;;;;7.19;50.15;102056.28;5062168;28;20052;-65
2023/03/28 03:23:29;;;;;;;8.05;2.78;;;;;;;7.37;50.18;102043.06;5072228;28;20049;-66
2023/03/28 03:25:58;;;;;;;7.03;2.95;;;;;;;7.46;49.95;102046.16;5068853;28;20060;-65
2023/03/28 03:28:38;;;;;;;8.48;2.75;;;;;;;7.43;49.72;102038.44;5059309;28;20574;-65
2023/03/28 03:31:06;;;;;;;10.55;2.80;;;;;;;7.33;50.28;102024.66;5069685;28;20044;-66
2023/03/28 03:33:52;;;;;;;7.45;2.70;;;;;;;7.15;50.92;102027.78;5051783;28;20053;-65
2023/03/28 03:36:25;;;;;;;9.00;2.45;;;;;;;7.39;50.18;102020.88;5050817;28;20197;-66
2023/03/28 03:38:53;;;;;;;10.02;2.85;;;;;;;7.23;50.86;102024.56;5038409;28;20045;-66
2023/03/28 03:41:23;;;;;;;9.32;2.67;;;;;;;7.23;50.47;102024.56;5028061;28;20049;-66
2023/03/28 03:43:51;;;;;;;11.05;2.80;;;;;;;7.31;50.49;102016.69;5044478;28;20061;-65
2023/03/28 03:46:18;;;;;;;8.20;2.85;;;;;;;7.28;50.81;102014.47;5049216;28;20032;-66
2023/03/28 03:48:47;;;;;;;10.30;2.60;;;;;;;7.02;51.52;102017.22;5046170;28;20054;-66
2023/03/28 03:51:16;;;;;;;8.88;3.05;;;;;;;7.13;51.76;102017.06;5037268;28;20302;-66
2023/03/28 03:53:45;;;;;;;9.30;3.60;;;;;;;7.06;52.03;102015.63;5054019;28;20492;-66
2023/03/28 03:56:15;;;;;;;12.95;3.10;;;;;;;6.82;52.49;102009.59;5053087;28;20049;-66
2023/03/28 03:58:55;;;;;;;9.07;2.78;;;;;;;7.00;52.71;102005.69;5054435;28;20412;-65
2023/03/28 04:01:28;;;;;;;14.55;2.90;;;;;;;7.18;52.38;102014.41;5052837;28;20056;-65
2023/03/28 04:04:06;;;;;;;11.90;3.15;;;;;;;7.42;51.69;102003.91;5054511;28;20052;-66
2023/03/28 04:06:50;;;;;;;7.97;2.95;;;;;;;7.21;52.26;101999.31;5033536;28;21122;-65
2023/03/28 04:09:19;;;;;;;9.63;3.15;;;;;;;6.93;52.81;102003.16;5034566;28;20050;-66
2023/03/28 04:11:56;;;;;;;8.35;3.15;;;;;;;6.79;53.39;102010.97;5017184;28;20052;-66
2023/03/28 04:14:23;;;;;;;9.93;2.95;;;;;;;6.91;53.25;102012.72;5054419;28;20041;-65
2023/03/28 04:17:03;;;;;;;11.50;3.55;;;;;;;6.87;53.24;102004.19;5044505;28;20496;-66
2023/03/28 04:19:31;;;;;;;8.70;3.03;;;;;;;6.99;52.92;102001.31;5035360;28;20559;-65
2023/03/28 04:21:58;;;;;;;14.82;3.45;;;;;;;7.06;52.92;102001.94;5042301;28;20053;-66
2023/03/28 04:24:26;;;;;;;12.73;3.65;;;;;;;7.08;52.40;102013.47;5036473;28;20053;-65
2023/03/28 04:27:16;;;;;;;11.18;2.88;;;;;;;7.29;52.18;102007.91;5050067;28;20037;-65
2023/03/28 04:29:46;;;;;;;9.20;3.50;;;;;;;7.08;52.51;102014.28;5045187;28;20048;-65
2023/03/28 04:32:34;;;;;;;10.93;3.22;;;;;;;6.94;52.88;102009.47;5048957;28;20060;-65
2023/03/28 04:35:07;;;;;;;12.50;3.67;;;;;;;6.78;53.38;102013.97;5062372;28;20373;-64
2023/03/28 04:37:36;;;;;;;8.77;3.38;;;;;;;6.58;54.28;102009.06;5055926;28;20071;-65
2023/03/28 04:40:15;;;;;;;7.78;3.35;;;;;;;6.78;53.94;102011.22;5057614;28;20499;-65
2023/03/28 04:43:14;;;;;;;7.90;3.08;;;;;;;6.80;53.58;102004.38;5069349;28;20067;-66
2023/03/28 04:45:47;;;;;;;15.27;3.35;;;;;;;6.97;53.50;102008.94;5071007;28;20620;-65
2023/03/28 04:48:17;;;;;;;7.05;3.03;;;;;;;7.02;53.74;102006.25;5071523;28;20044;-65
2023/03/28 04:50:45;;;;;;;13.73;3.47;;;;;;;6.99;53.72;102007.59;5053507;28;20415;-65
2023/03/28 04:53:13;;;;;;;9.73;2.90;;;;;;;7.06;53.88;102005.47;5054308;28;20051;-65
2023/03/28 04:56:01;;;;;;;11.73;3.20;;;;;;;6.92;54.09;102008.91;5067411;28;20056;-65
2023/03/28 04:58:29;;;;;;;14.90;3.90;;;;;;;6.71;54.81;102007.84;5047819;28;20060;-66
2023/03/28 05:01:01;;;;;;;10.10;3.63;;;;;;;6.60;55.49;102006.91;5069280;28;20048;-66
2023/03/28 05:03:55;;;;;;;9.00;3.88;;;;;;;6.95;54.24;102005.63;5034246;28;20064;-65
2023/03/28 05:06:24;;;;;;;8.32;3.38;;;;;;;6.91;54.59;102013.53;5039777;28;20384;-65
2023/03/28 05:08:52;;;;;;;9.35;3.85;;;;;;;6.81;55.25;102008.81;5063877;28;20063;-65
2023/03/28 05:11:24;;;;;;;11.27;3.58;;;;;;;6.75;55.33;102007.06;5066797;28;20052;-67
2023/03/28 05:13:51;;;;;;;12.82;4.40;;;;;;;6.81;55.85;102008.81;5049374;28;20052;-64
2023/03/28 05:16:27;;;;;;;12.05;3.90;;;;;;;6.68;55.75;102011.09;5062489;28;20044;-64
2023/03/28 05:19:04;;;;;;;9.48;4.20;;;;;;;6.57;56.36;102021.09;5058845;28;20056;-64
2023/03/28 05:22:06;;;;;;;11.52;3.53;;;;;;;6.75;56.17;102022.66;5048780;28;20049;-65
2023/03/28 05:24:37;;;;;;;13.50;3.78;;;;;;;6.91;55.45;102020.94;5071265;28;20057;-67
2023/03/28 05:27:11;;;;;;;9.45;3.72;;;;;;;7.14;54.87;102020.63;5062293;28;20041;-66
2023/03/28 05:29:38;;;;;;;9.82;3.40;;;;;;;7.11;54.41;102011.03;5063308;28;20053;-65
2023/03/28 05:32:06;;;;;;;8.77;3.63;;;;;;;6.84;55.03;102012.91;5068100;28;20048;-64
2023/03/28 05:34:34;;;;;;;8.23;3.47;;;;;;;6.73;55.74;102011.13;5051128;28;20049;-64
2023/03/28 05:37:03;;;;;;;9.85;3.83;;;;;;;6.95;55.53;102019.34;5059073;28;20041;-66
2023/03/28 05:39:42;;;;;;;8.93;3.53;;;;;;;6.85;56.13;102020.06;5060193;28;20068;-66
2023/03/28 05:42:09;;;;;;;9.20;3.83;;;;;;;6.73;55.74;102024.84;5050500;28;20055;-66
2023/03/28 05:44:39;;;;;;;11.48;4.10;;;;;;;6.82;56.24;102021.41;5064591;28;20052;-66
2023/03/28 05:47:27;;;;;;;9.50;3.38;;;;;;;6.74;56.39;102027.34;5059363;28;20500;-66
2023/03/28 05:49:56;;;;;;;11.02;4.28;;;;;;;6.48;57.04;102022.63;5054548;28;20070;-65
2023/03/28 05:52:25;;;;;;;12.27;3.95;;;;;;;6.56;57.69;102026.81;5070947;28;20052;-65
2023/03/28 05:54:54;;;;;;;11.18;4.18;;;;;;;6.52;57.76;102022.97;5056183;28;20052;-66
2023/03/28 05:57:22;;;;;;;9.88;4.03;;;;;;;6.36;57.98;102013.69;5051299;28;20048;-65
2023/03/28 05:59:50;;;;;;;10.13;4.13;;;;;;;6.49;57.90;102018.81;5057874;28;20415;-66
2023/03/28 06:02:21;;;;;;;15.13;7.72;;;;;;;6.68;57.52;102022.03;5075421;28;20056;-66
2023/03/28 06:04:52;;;;;;;11.40;4.32;;;;;;;6.64;57.21;102016.25;5052622;28;20049;-64
2023/03/28 06:07:20;;;;;;;11.90;4.20;;;;;;;6.63;57.20;102014.59;5053672;28;20056;-65
2023/03/28 06:10:08;;;;;;;11.07;4.50;;;;;;;6.50;58.18;102023.19;5062146;28;20045;-66
2023/03/28 06:12:36;;;;;;;11.60;4.40;;;;;;;6.40;58.63;102025.81;5075653;28;20048;-65
2023/03/28 06:15:04;;;;;;;10.68;4.35;;;;;;;6.43;58.83;102029.94;5059983;28;20048;-65
2023/03/28 06:17:35;;;;;;;13.07;4.75;;;;;;;6.40;58.84;102039.47;5074366;28;20047;-65
2023/03/28 06:20:06;;;;;;;10.82;4.07;;;;;;;6.58;58.40;102038.34;5069540;28;20411;-66
2023/03/28 06:22:37;;;;;;;14.43;4.78;;;;;;;6.61;58.35;102046.88;5066007;28;20037;-66
2023/03/28 06:25:10;;;;;;;12.85;4.00;;;;;;;6.99;58.06;102034.97;5058155;28;20044;-66
2023/03/28 06:27:38;;;;;;;10.00;4.20;;;;;;;6.94;57.49;102042.34;5075097;28;20036;-65
2023/03/28 06:30:06;;;;;;;13.00;4.07;;;;;;;6.87;57.24;102037.03;5069340;28;20056;-66
2023/03/28 06:32:44;;;;;;;11.17;5.00;;;;;;;6.96;57.96;102037.44;5034597;28;20041;-66
2023/03/28 06:35:14;;;;;;;12.32;4.47;;;;;;;6.91;57.55;102035.47;5066632;28;20294;-66
2023/03/28 06:37:42;;;;;;;12.35;5.07;;;;;;;7.04;57.98;102046.03;5065109;28;20045;-67
2023/03/28 06:40:10;;;;;;;12.20;5.18;;;;;;;7.06;57.60;102045.75;5060028;28;20049;-67
2023/03/28 06:42:38;;;;;;;11.13;4.85;;;;;;;7.10;57.77;102052.34;5065973;28;20044;-66
2023/03/28 06:45:28;;;;;;;10.15;4.95;;;;;;;7.17;56.40;102052.97;5058680;28;20076;-65
2023/03/28 06:48:01;;;;;;;13.68;4.68;;;;;;;7.25;56.85;102055.28;5059900;28;20055;-65
2023/03/28 06:50:51;;;;;;;10.40;4.80;;;;;;;6.80;58.03;102047.38;5064392;28;20055;-66
2023/03/28 06:53:21;;;;;;;14.98;4.45;;;;;;;6.97;58.22;102041.81;5060459;28;20052;-63
2023/03/28 06:55:50;;;;;;;13.18;4.53;;;;;;;7.16;57.19;102030.25;5068259;28;20048;-65
2023/03/28 06:58:18;;;;;;;17.38;5.03;;;;;;;7.14;56.92;102031.59;5065342;28;20056;-66
2023/03/28 07:00:52;;;;;;;11.93;4.80;;;;;;;7.38;57.63;102030.16;5066141;28;20044;-65
2023/03/28 07:03:42;;;;;;;13.60;5.07;;;;;;;7.21;57.25;102032.22;5065062;28;20053;-65
2023/03/28 07:06:17;;;;;;;13.15;4.53;;;;;;;7.50;57.21;102028.91;5063453;28;20060;-65
2023/03/28 07:08:44;;;;;;;11.80;4.60;;;;;;;7.27;57.98;102023.78;5068166;28;20052;-66
2023/03/28 07:11:17;;;;;;;12.70;5.05;;;;;;;7.32;57.29;102012.03;5047672;28;20055;-67
2023/03/28 07:13:48;;;;;;;10.98;4.80;;;;;;;7.42;56.97;102004.75;5070922;28;20057;-65
2023/03/28 07:16:15;;;;;;;13.27;5.40;;;;;;;7.54;57.58;101997.16;5046421;28;20068;-65
2023/03/28 07:18:43;;;;;;;11.90;4.75;;;;;;;7.29;57.31;101994.19;5081701;28;20040;-65
2023/03/28 07:21:16;;;;;;;13.18;5.32;;;;;;;7.50;57.30;101990.53;5051342;28;20059;-68
2023/03/28 07:23:44;;;;;;;11.53;5.03;;;;;;;7.57;57.75;101988.41;5057436;28;20398;-64
2023/03/28 07:26:14;;;;;;;11.38;5.43;;;;;;;7.66;57.19;101995.06;5066572;28;20295;-65
2023/03/28 07:28:41;;;;;;;10.70;4.93;;;;;;;7.30;57.31;102004.09;5059652;28;20559;-65
2023/03/28 07:31:10;;;;;;;11.68;4.80;;;;;;;7.60;57.28;102007.06;5049996;28;20495;-66
2023/03/28 07:33:37;;;;;;;13.93;4.78;;;;;;;7.52;56.75;102007.56;5043138;28;20049;-64
2023/03/28 07:36:12;;;;;;;14.10;4.95;;;;;;;7.48;57.51;102017.38;5059612;28;20048;-64
2023/03/28 07:38:42;;;;;;;9.70;5.20;;;;;;;7.34;57.29;102029.88;5061354;28;20064;-64
2023/03/28 07:41:09;;;;;;;12.90;5.80;;;;;;;7.26;57.57;102015.81;5061479;28;20055;-64
2023/03/28 07:43:38;;;;;;;14.82;5.57;;;;;;;7.63;56.99;102012.03;5068112;28;20599;-63
2023/03/28 07:46:08;;;;;;;16.17;6.20;;;;;;;7.52;56.37;102023.16;5056568;28;20513;-63
2023/03/28 07:48:36;;;;;;;15.38;6.10;;;;;;;7.70;56.66;102025.53;5064908;28;20048;-64
2023/03/28 07:51:05;;;;;;;17.88;6.53;;;;;;;7.69;55.81;102012.88;5066466;28;20059;-64
2023/03/28 07:53:34;;;;;;;13.27;5.55;;;;;;;7.69;56.52;102021.13;5070898;28;20048;-63
2023/03/28 07:56:02;;;;;;;18.67;5.97;;;;;;;7.81;56.19;102022.59;5052315;28;20158;-64
2023/03/28 07:58:50;;;;;;;14.35;5.75;;;;;;;7.86;55.89;102027.31;5062527;28;20063;-65
2023/03/28 08:01:18;;;;;;;17.80;5.25;;;;;;;8.07;55.77;102033.75;5067896;28;20049;-63
2023/03/28 08:03:48;;;;;;;15.77;5.65;;;;;;;8.15;55.21;102039.56;5063190;28;20053;-63
2023/03/28 08:06:16;;;;;;;14.18;5.50;;;;;;;8.42;54.65;102034.78;5066103;28;20047;-64
2023/03/28 08:09:02;;;;;;;19.85;6.15;;;;;;;8.34;54.16;102027.06;5067777;28;20045;-63
2023/03/28 08:11:38;;;;;;;10.23;5.75;;;;;;;8.27;54.87;102011.94;5049087;28;20056;-62
2023/03/28 08:14:10;;;;;;;12.98;5.63;;;;;;;8.41;54.30;102018.59;5048964;28;20059;-68
2023/03/28 08:16:37;;;;;;;17.73;6.10;;;;;;;8.46;54.45;102019.44;5083456;28;20057;-63
2023/03/28 08:19:05;;;;;;;18.80;6.20;;;;;;;8.70;53.83;102017.09;5072504;28;20040;-63
2023/03/28 08:22:01;;;;;;;22.27;6.28;;;;;;;8.87;52.92;102015.75;5048889;28;20064;-63
2023/03/28 08:24:31;;;;;;;28.17;5.82;;;;;;;8.75;52.40;102014.34;5070614;28;20503;-64
2023/03/28 08:27:11;;;;;;;17.88;5.38;;;;;;;9.02;52.27;102013.03;5066854;28;20052;-63
2023/03/28 08:29:41;;;;;;;13.82;5.78;;;;;;;9.18;52.18;102013.06;5059887;28;20052;-63
2023/03/28 08:32:09;;;;;;;17.35;4.93;;;;;;;9.39;50.71;102014.75;5061724;28;20045;-64
2023/03/28 08:34:37;;;;;;;13.40;5.13;;;;;;;9.29;49.79;102001.81;5045571;28;20060;-64
2023/03/28 08:37:12;;;;;;;9.05;4.03;;;;;;;9.24;49.44;102007.28;5065191;28;20052;-64
2023/03/28 08:39:42;;;;;;;10.05;4.47;;;;;;;9.07;48.88;102018.56;5054204;28;20055;-64
2023/03/28 08:42:26;;;;;;;14.65;5.10;;;;;;;9.10;48.83;102026.25;5064685;28;20063;-63
2023/03/28 08:45:30;;;;;;;14.88;4.38;;;;;;;9.15;48.68;102028.19;5066342;28;20053;-63
2023/03/28 08:48:19;;;;;;;11.70;4.15;;;;;;;9.23;48.18;102018.56;5058215;28;20056;-63
2023/03/28 08:50:50;;;;;;;11.73;4.35;;;;;;;9.52;47.07;102008.72;5046209;28;20500;-63
2023/03/28 08:53:48;;;;;;;10.32;4.00;;;;;;;9.36;47.42;102007.03;5051146;28;20811;-64
2023/03/28 08:56:16;;;;;;;9.15;4.00;;;;;;;9.52;46.42;101993.00;5051339;28;20061;-64
2023/03/28 08:59:25;;;;;;;16.98;4.45;;;;;;;9.48;46.38;101999.34;5070949;28;20037;-64
2023/03/28 09:01:53;;;;;;;10.00;4.07;;;;;;;9.37;47.63;101998.53;5057493;28;20069;-63
2023/03/28 09:04:38;;;;;;;12.15;3.83;;;;;;;9.42;47.00;101990.28;5056185;28;20048;-64
2023/03/28 09:07:16;;;;;;;11.85;4.50;;;;;;;9.57;46.42;101987.50;5062401;28;20045;-63
2023/03/28 09:09:55;;;;;;;12.82;4.53;;;;;;;9.42;46.37;101992.19;5060091;28;20184;-64
2023/03/28 09:12:45;;;;;;;9.13;4.00;;;;;;;9.56;46.69;101990.53;5080502;28;20056;-63
2023/03/28 09:15:19;;;;;;;9.38;3.85;;;;;;;9.62;46.65;101995.78;5057512;28;20044;-64
2023/03/28 09:18:09;;;;;;;11.65;4.00;;;;;;;9.73;46.33;101980.91;5055950;28;20068;-64
2023/03/28 09:21:36;;;;;;;12.77;4.13;;;;;;;9.91;45.86;101976.75;5044328;28;20044;-64
2023/03/28 09:24:16;;;;;;;9.82;3.75;;;;;;;9.61;46.39;101985.88;5007355;28;20052;-63
2023/03/28 09:27:01;;;;;;;7.40;3.10;;;;;;;10.09;46.05;101989.97;5047517;28;20052;-64
2023/03/28 09:29:33;;;;;;;9.50;2.95;;;;;;;9.83;45.79;101986.38;5039364;28;20049;-65
2023/03/28 09:32:12;;;;;;;10.55;3.35;;;;;;;10.26;44.87;101987.69;5047402;28;20056;-64
2023/03/28 09:34:48;;;;;;;8.50;3.55;;;;;;;10.19;45.10;101978.91;5065496;28;20060;-65
2023/03/28 09:37:30;;;;;;;10.05;3.35;;;;;;;10.39;44.85;101969.75;5038854;28;20076;-64
2023/03/28 09:40:21;;;;;;;8.98;2.92;;;;;;;10.27;44.58;101961.78;5063561;28;20488;-63
2023/03/28 09:43:34;;;;;;;9.43;2.88;;;;;;;10.27;44.49;101947.22;5035760;28;20064;-63
2023/03/28 09:46:17;;;;;;;8.43;2.95;;;;;;;10.15;43.77;101953.88;5064296;28;20060;-64
2023/03/28 09:48:58;;;;;;;8.20;2.53;;;;;;;10.18;43.95;101941.47;5046087;28;20052;-62
2023/03/28 09:51:30;;;;;;;8.75;2.40;;;;;;;10.28;43.69;101935.94;5049767;28;20056;-63
2023/03/28 09:53:58;;;;;;;10.18;2.53;;;;;;;10.52;42.96;101936.06;5057265;28;20056;-63
2023/03/28 09:56:36;;;;;;;12.15;2.55;;;;;;;10.74;42.44;101926.31;5059998;28;20060;-63
2023/03/28 09:59:39;;;;;;;8.55;2.53;;;;;;;10.96;42.52;101923.97;5053643;28;20046;-62
2023/03/28 10:02:29;;;;;;;8.27;2.58;;;;;;;11.12;42.21;101921.91;5063072;28;20045;-64
2023/03/28 10:05:00;;;;;;;13.68;2.72;;;;;;;10.96;41.43;101923.13;5049128;28;20072;-63
2023/03/28 10:07:43;;;;;;;8.60;2.30;;;;;;;10.86;41.94;101920.47;5067606;28;20045;-63
2023/03/28 10:10:21;;;;;;;8.85;2.47;;;;;;;11.06;41.35;101910.09;5048914;28;20060;-64
2023/03/28 10:13:03;;;;;;;9.60;2.47;;;;;;;10.95;41.77;101919.53;5066997;28;20059;-65
2023/03/28 10:15:48;;;;;;;10.20;2.58;;;;;;;11.01;41.51;101912.06;5067000;28;20057;-64
2023/03/28 10:18:34;;;;;;;9.18;2.67;;;;;;;10.92;41.04;101911.84;5067232;28;20056;-64
2023/03/28 10:21:19;;;;;;;8.52;3.20;;;;;;;11.00;41.30;101911.22;5063773;28;20049;-64
2023/03/28 10:24:02;;;;;;;9.55;3.00;;;;;;;11.14;41.13;101906.72;5047769;28;20056;-63
2023/03/28 10:26:30;;;;;;;12.63;3.95;;;;;;;11.06;41.35;101898.25;5079397;28;20053;-63
2023/03/28 10:29:03;;;;;;;5.32;2.45;;;;;;;11.35;41.11;101905.44;5054708;28;20048;-64
2023/03/28 10:31:32;;;;;;;7.43;2.67;;;;;;;11.28;40.81;101906.88;5049359;28;20070;-63
2023/03/28 10:34:28;;;;;;;12.88;2.58;;;;;;;11.28;40.79;101904.09;5072781;28;20056;-64
2023/03/28 10:37:28;;;;;;;7.97;2.83;;;;;;;11.24;40.79;101903.88;5070785;28;20048;-63
2023/03/28 10:40:17;;;;;;;7.57;2.33;;;;;;;11.25;40.68;101897.25;5084637;28;20047;-65
2023/03/28 10:43:13;;;;;;;10.05;2.75;;;;;;;11.97;40.49;101900.97;5063259;28;20051;-64
2023/03/28 10:45:46;;;;;;;13.77;3.03;;;;;;;11.92;40.40;101892.75;5065656;28;20044;-63
2023/03/28 10:48:21;;;;;;;8.05;2.67;;;;;;;11.73;40.51;101892.69;5058260;28;20048;-64
2023/03/28 10:50:52;;;;;;;9.18;2.35;;;;;;;11.90;39.97;101883.94;5067295;28;20296;-64
2023/03/28 10:53:35;;;;;;;6.05;2.10;;;;;;;12.06;40.18;101868.81;5032468;28;20052;-64
2023/03/28 10:56:23;;;;;;;8.38;2.80;;;;;;;11.80;40.19;101867.50;5070059;28;20059;-63
2023/03/28 10:59:29;;;;;;;8.48;2.60;;;;;;;11.86;40.24;101863.53;5049688;28;20102;-64
2023/03/28 11:02:23;;;;;;;7.97;3.05;;;;;;;11.96;40.04;101853.19;5045169;28;20049;-64
2023/03/28 11:05:00;;;;;;;11.52;4.28;;;;;;;11.65;40.57;101856.59;5064672;28;20048;-66
2023/03/28 11:07:44;;;;;;;15.18;4.00;;;;;;;11.84;40.42;101851.97;5063751;28;20053;-64
2023/03/28 11:10:31;;;;;;;11.02;5.90;;;;;;;11.75;40.10;101853.75;5081656;28;20496;-63
2023/03/28 11:13:21;;;;;;;13.93;5.50;;;;;;;11.84;40.08;101840.91;5072064;28;20369;-63
2023/03/28 11:15:48;;;;;;;8.77;3.60;;;;;;;11.68;40.30;101842.25;5069710;28;20052;-63
2023/03/28 11:18:55;;;;;;;8.40;3.17;;;;;;;11.81;40.12;101842.34;5039492;28;20049;-65
2023/03/28 11:21:51;;;;;;;8.85;3.15;;;;;;;11.65;40.82;101835.34;5060862;28;20061;-64
2023/03/28 11:24:18;;;;;;;12.40;2.92;;;;;;;11.84;40.72;101816.06;5063597;28;20052;-62
2023/03/28 11:27:26;;;;;;;8.45;2.88;;;;;;;11.93;40.93;101823.41;5049736;28;20051;-63
2023/03/28 11:30:16;;;;;;;8.40;3.50;;;;;;;12.21;40.67;101832.72;5049933;28;20041;-62
2023/03/28 11:32:58;;;;;;;8.00;2.70;;;;;;;12.17;40.75;101829.72;5063002;28;20778;-64
2023/03/28 11:36:06;;;;;;;7.25;2.92;;;;;;;11.97;40.62;101820.88;5057362;28;20053;-63
2023/03/28 11:38:40;;;;;;;9.38;2.97;;;;;;;12.22;40.15;101823.31;5015877;28;20048;-63
2023/03/28 11:41:21;;;;;;;7.20;2.97;;;;;;;12.11;40.10;101814.34;5050713;28;20049;-64
2023/03/28 11:44:20;;;;;;;8.80;2.90;;;;;;;11.67;41.43;101811.03;5060231;28;20041;-63
2023/03/28 11:46:58;;;;;;;9.75;3.20;;;;;;;11.84;40.21;101805.84;5066518;28;20493;-64
2023/03/28 11:49:37;;;;;;;6.93;2.78;;;;;;;11.58;41.37;101798.16;5034269;28;20044;-63
2023/03/28 11:52:43;;;;;;;11.02;3.40;;;;;;;11.42;41.54;101807.72;5053481;28;20063;-63
2023/03/28 11:55:16;;;;;;;;;;;;;;;11.63;41.87;101798.13;5056319;28;20064;-62
2023/03/28 11:57:56;;;;;;;7.32;2.70;;;;;;;11.74;40.94;101796.88;5067367;28;19924;-63
2023/03/28 12:00:31;;;;;;;8.40;2.88;;;;;;;11.81;41.27;101783.53;5047305;28;20696;-63
2023/03/28 12:03:33;;;;;;;14.27;3.20;;;;;;;12.02;40.79;101765.59;5024931;28;20048;-63
2023/03/28 12:06:03;;;;;;;7.43;2.60;;;;;;;12.11;41.34;101744.47;5069643;28;20056;-63
2023/03/28 12:08:48;;;;;;;10.82;3.00;;;;;;;12.42;40.45;101751.19;5067008;28;20044;-63
2023/03/28 12:11:51;;;;;;;12.27;2.97;;;;;;;12.58;40.12;101769.16;5044934;28;20451;-64
2023/03/28 12:14:35;;;;;;;7.93;2.65;;;;;;;12.60;40.08;101772.44;5039958;28;20053;-63
2023/03/28 12:17:19;;;;;;;11.85;2.60;;;;;;;12.46;40.33;101768.81;5054608;28;20068;-63